createdAt,value
2022-12-08T00:00:10.273Z,91.85
2022-12-08T00:02:54.850Z,91.87
2022-12-08T00:05:55.547Z,92.06
2022-12-08T00:08:56.361Z,92.11
2022-12-08T00:11:40.450Z,91.76
2022-12-08T00:14:26.679Z,92.60
2022-12-08T00:17:11.591Z,91.91
2022-12-08T00:19:56.127Z,90.93
2022-12-08T00:22:39.311Z,91.99
2022-12-08T00:25:22.335Z,91.99
2022-12-08T00:28:05.695Z,91.28
2022-12-08T00:30:48.782Z,91.00
2022-12-08T00:33:33.023Z,91.43
2022-12-08T00:36:17.792Z,91.64
2022-12-08T00:39:01.222Z,89.87
2022-12-08T00:42:10.111Z,89.73
2022-12-08T00:44:53.243Z,90.47
2022-12-08T00:47:36.356Z,89.53
2022-12-08T00:50:19.579Z,89.46
2022-12-08T00:53:09.764Z,89.11
2022-12-08T00:55:56.467Z,89.93
2022-12-08T00:58:39.960Z,90.95
2022-12-08T01:02:13.807Z,90.65
2022-12-08T01:08:52.638Z,92.21
2022-12-08T01:11:36.661Z,93.66
2022-12-08T01:14:19.737Z,93.43
2022-12-08T01:17:02.874Z,94.10
2022-12-08T01:19:46.491Z,92.84
2022-12-08T01:22:29.885Z,92.81
2022-12-08T01:25:15.161Z,92.15
2022-12-08T01:27:58.277Z,91.44
2022-12-08T01:30:42.338Z,91.26
2022-12-08T01:33:26.163Z,90.63
2022-12-08T01:36:10.527Z,90.48
2022-12-08T01:38:54.984Z,90.74
2022-12-08T01:41:40.382Z,90.25
2022-12-08T01:44:55.056Z,90.74
2022-12-08T01:47:42.637Z,90.16
2022-12-08T01:50:26.807Z,89.51
2022-12-08T01:53:13.655Z,89.22
2022-12-08T01:56:00.660Z,90.59
2022-12-08T01:58:47.928Z,89.95
2022-12-08T02:01:31.130Z,90.85
2022-12-08T02:04:14.281Z,89.71
2022-12-08T02:06:57.736Z,90.16
2022-12-08T02:09:42.196Z,90.54
2022-12-08T02:12:26.321Z,90.81
2022-12-08T02:15:12.963Z,91.20
2022-12-08T02:18:08.689Z,91.80
2022-12-08T02:20:58.873Z,91.94
2022-12-08T02:23:53.747Z,91.44
2022-12-08T02:27:04.967Z,91.10
2022-12-08T02:30:19.848Z,91.09
2022-12-08T02:33:50.385Z,90.64
2022-12-08T02:36:44.413Z,89.65
2022-12-08T02:39:36.286Z,89.56
2022-12-08T02:42:28.939Z,89.48
2022-12-08T02:45:15.998Z,90.16
2022-12-08T02:47:59.997Z,90.09
2022-12-08T02:50:43.631Z,90.46
2022-12-08T02:53:31.655Z,92.67
2022-12-08T02:56:30.201Z,93.03
2022-12-08T02:59:24.019Z,91.04
2022-12-08T03:02:43.562Z,93.73
2022-12-08T03:05:40.787Z,94.90
2022-12-08T03:08:31.124Z,93.96
2022-12-08T03:11:20.466Z,93.67
2022-12-08T03:14:06.553Z,94.97
2022-12-08T03:16:54.171Z,93.14
2022-12-08T03:19:40.947Z,91.13
2022-12-08T03:22:28.604Z,90.53
2022-12-08T03:25:17.600Z,90.10
2022-12-08T03:28:01.641Z,90.41
2022-12-08T03:30:50.214Z,88.80
2022-12-08T03:33:37.032Z,90.83
2022-12-08T03:36:21.182Z,91.11
2022-12-08T03:39:05.049Z,90.13
2022-12-08T03:41:49.620Z,90.98
2022-12-08T03:44:32.790Z,90.04
2022-12-08T03:47:15.981Z,89.19
2022-12-08T03:49:59.023Z,90.93
2022-12-08T03:52:42.628Z,90.54
2022-12-08T03:55:25.755Z,90.12
2022-12-08T03:58:10.670Z,90.73
2022-12-08T04:00:53.780Z,88.28
2022-12-08T04:03:36.909Z,88.25
2022-12-08T04:06:21.232Z,86.34
2022-12-08T04:09:04.453Z,86.05
2022-12-08T04:11:47.781Z,87.41
2022-12-08T04:14:32.268Z,87.08
2022-12-08T04:17:15.365Z,85.65
2022-12-08T04:19:58.506Z,85.92
2022-12-08T04:22:41.648Z,85.66
2022-12-08T04:25:24.922Z,85.15
2022-12-08T04:28:08.268Z,85.81
2022-12-08T04:30:52.817Z,86.17
2022-12-08T04:33:36.370Z,84.93
2022-12-08T04:36:19.676Z,84.69
2022-12-08T04:39:03.627Z,85.56
2022-12-08T04:41:46.631Z,86.38
2022-12-08T04:44:29.714Z,85.45
2022-12-08T04:47:14.393Z,84.76
2022-12-08T04:49:57.856Z,83.58
2022-12-08T04:52:41.369Z,83.60
2022-12-08T04:55:24.482Z,83.19
2022-12-08T04:58:07.574Z,83.55
2022-12-08T05:00:50.822Z,83.15
2022-12-08T05:03:35.242Z,83.57
2022-12-08T05:06:18.358Z,83.15
2022-12-08T05:09:01.705Z,83.88
2022-12-08T05:11:48.840Z,84.96
2022-12-08T05:14:32.520Z,83.90
2022-12-08T05:17:15.643Z,84.27
2022-12-08T05:20:00.143Z,84.23
2022-12-08T05:22:43.334Z,84.45
2022-12-08T05:25:26.383Z,83.76
2022-12-08T05:28:39.472Z,83.99
2022-12-08T05:31:14.348Z,84.89
2022-12-08T05:34:02.773Z,85.17
2022-12-08T05:36:48.274Z,83.98
2022-12-08T05:39:31.319Z,84.09
2022-12-08T05:42:14.468Z,83.96
2022-12-08T05:44:58.142Z,83.90
2022-12-08T05:47:41.258Z,83.16
2022-12-08T05:50:24.343Z,82.70
2022-12-08T05:53:09.236Z,82.53
2022-12-08T05:55:52.554Z,82.40
2022-12-08T05:58:35.890Z,81.36
2022-12-08T06:01:24.164Z,82.29
2022-12-08T06:04:07.273Z,80.93
2022-12-08T06:06:51.034Z,81.55
2022-12-08T06:09:35.528Z,80.01
2022-12-08T06:12:18.666Z,80.03
2022-12-08T06:15:01.672Z,80.17
2022-12-08T06:17:44.752Z,79.46
2022-12-08T06:20:27.874Z,79.23
2022-12-08T06:23:11.329Z,78.81
2022-12-08T06:25:56.943Z,80.39
2022-12-08T06:28:40.934Z,79.66
2022-12-08T06:31:25.911Z,79.29
2022-12-08T06:34:09.021Z,79.71
2022-12-08T06:36:52.110Z,80.36
2022-12-08T06:39:35.252Z,81.56
2022-12-08T06:42:37.266Z,80.59
2022-12-08T06:45:20.534Z,78.63
2022-12-08T06:48:04.415Z,77.19
2022-12-08T06:50:47.565Z,75.91
2022-12-08T06:53:30.883Z,75.44
2022-12-08T06:56:16.022Z,68.89
2022-12-08T06:59:00.661Z,55.10
2022-12-08T07:01:43.933Z,43.74
2022-12-08T07:04:27.206Z,38.96
2022-12-08T07:07:11.275Z,35.96
2022-12-08T07:09:54.415Z,34.97
2022-12-08T07:12:38.128Z,34.03
2022-12-08T07:15:22.885Z,30.58
2022-12-08T07:18:06.274Z,34.77
2022-12-08T07:20:49.375Z,40.94
2022-12-08T07:23:33.026Z,44.10
2022-12-08T07:26:17.711Z,46.04
2022-12-08T07:29:01.936Z,48.25
2022-12-08T07:31:46.460Z,52.19
2022-12-08T07:34:29.472Z,53.78
2022-12-08T07:37:12.698Z,56.07
2022-12-08T07:39:55.860Z,58.73
2022-12-08T07:42:39.136Z,60.14
2022-12-08T07:45:25.655Z,61.89
2022-12-08T07:48:14.352Z,63.09
2022-12-08T07:51:01.831Z,63.65
2022-12-08T07:53:53.132Z,64.92
2022-12-08T07:56:36.818Z,65.95
2022-12-08T07:59:20.322Z,65.93
2022-12-08T08:02:22.803Z,66.38
2022-12-08T08:05:09.009Z,66.91
2022-12-08T08:07:52.234Z,67.40
2022-12-08T08:10:35.468Z,66.18
2022-12-08T08:13:19.189Z,65.52
2022-12-08T08:16:04.969Z,65.92
2022-12-08T08:18:49.428Z,66.56
2022-12-08T08:21:45.383Z,65.70
2022-12-08T08:24:28.863Z,64.37
2022-12-08T08:27:12.733Z,65.18
2022-12-08T08:29:55.842Z,64.27
2022-12-08T08:32:38.947Z,63.81
2022-12-08T08:35:22.518Z,62.53
2022-12-08T08:38:09.334Z,61.68
2022-12-08T08:40:53.031Z,60.37
2022-12-08T08:43:38.694Z,60.00
2022-12-08T08:46:22.493Z,60.36
2022-12-08T08:49:05.678Z,60.65
2022-12-08T08:51:49.104Z,59.97
2022-12-08T08:54:34.319Z,60.45
2022-12-08T08:57:23.670Z,59.67
2022-12-08T09:00:10.823Z,59.72
2022-12-08T09:02:53.998Z,58.62
2022-12-08T09:05:39.605Z,58.19
2022-12-08T09:08:22.802Z,55.04
2022-12-08T09:11:09.673Z,51.39
2022-12-08T09:13:54.725Z,55.46
2022-12-08T09:16:42.373Z,48.51
2022-12-08T09:19:25.850Z,45.31
2022-12-08T09:22:09.031Z,49.55
2022-12-08T09:24:54.402Z,47.33
2022-12-08T09:27:41.568Z,46.18
2022-12-08T09:30:24.711Z,47.04
2022-12-08T09:33:08.158Z,44.46
2022-12-08T09:35:51.512Z,45.34
2022-12-08T09:38:34.668Z,44.11
2022-12-08T09:41:29.330Z,47.41
2022-12-08T09:44:39.864Z,44.92
2022-12-08T09:47:29.494Z,42.37
2022-12-08T09:50:23.884Z,40.98
2022-12-08T09:53:13.698Z,38.72
2022-12-08T09:55:59.767Z,35.54
2022-12-08T09:58:52.738Z,30.11
2022-12-08T10:01:41.963Z,28.20
2022-12-08T10:04:29.047Z,29.60
2022-12-08T10:07:18.707Z,29.38
2022-12-08T10:10:07.466Z,28.95
2022-12-08T10:12:56.517Z,29.55
2022-12-08T10:15:48.608Z,27.39
2022-12-08T10:18:35.801Z,25.32
2022-12-08T10:21:22.994Z,24.08
2022-12-08T10:24:15.256Z,21.50
2022-12-08T10:26:58.653Z,20.57
2022-12-08T10:29:42.292Z,20.06
2022-12-08T10:32:35.472Z,20.44
2022-12-08T10:35:22.537Z,21.82
2022-12-08T10:38:06.598Z,22.88
2022-12-08T10:40:52.270Z,26.03
2022-12-08T10:43:38.037Z,27.01
2022-12-08T10:46:25.925Z,24.74
2022-12-08T10:49:13.520Z,22.47
2022-12-08T10:51:58.688Z,19.26
2022-12-08T10:54:44.192Z,20.95
2022-12-08T10:57:27.596Z,22.57
2022-12-08T11:00:17.127Z,23.54
2022-12-08T11:03:02.797Z,20.82
2022-12-08T11:05:46.148Z,22.63
2022-12-08T11:08:31.556Z,24.24
2022-12-08T11:11:15.226Z,24.89
2022-12-08T11:13:58.584Z,26.51
2022-12-08T11:16:43.952Z,28.18
2022-12-08T11:19:28.991Z,32.55
2022-12-08T11:22:23.094Z,34.44
2022-12-08T11:25:21.027Z,36.85
2022-12-08T11:28:04.379Z,39.23
2022-12-08T11:30:54.518Z,39.75
2022-12-08T11:33:37.603Z,41.21
2022-12-08T11:36:23.630Z,42.48
2022-12-08T11:39:07.144Z,44.35
2022-12-08T11:41:55.194Z,45.28
2022-12-08T11:44:46.115Z,46.26
2022-12-08T11:47:36.370Z,46.74
2022-12-08T11:50:25.815Z,47.06
2022-12-08T11:53:18.778Z,45.73
2022-12-08T11:56:08.505Z,46.78
2022-12-08T11:58:57.134Z,48.05
2022-12-08T12:01:42.725Z,48.66
2022-12-08T12:04:31.256Z,49.50
2022-12-08T12:07:47.546Z,50.43
2022-12-08T12:10:56.180Z,49.42
2022-12-08T12:14:06.756Z,49.68
2022-12-08T12:17:03.511Z,50.74
2022-12-08T12:19:49.969Z,50.85
2022-12-08T12:22:38.871Z,51.80
2022-12-08T12:25:25.222Z,52.98
2022-12-08T12:28:10.655Z,55.52
2022-12-08T12:31:02.553Z,55.08
2022-12-08T12:33:48.326Z,53.31
2022-12-08T12:36:51.309Z,54.20
2022-12-08T12:39:47.363Z,55.72
2022-12-08T12:42:43.787Z,53.94
2022-12-08T12:45:31.802Z,52.99
2022-12-08T12:48:24.260Z,55.74
2022-12-08T12:51:37.267Z,56.65
2022-12-08T12:54:24.510Z,56.18
2022-12-08T12:57:26.188Z,56.60
2022-12-08T13:00:18.790Z,56.84
2022-12-08T13:03:02.221Z,55.93
2022-12-08T13:05:52.286Z,55.76
2022-12-08T13:08:35.421Z,55.94
2022-12-08T13:11:18.982Z,55.73
2022-12-08T13:14:04.032Z,55.56
2022-12-08T13:16:53.652Z,57.71
2022-12-08T13:19:39.930Z,57.93
2022-12-08T13:22:50.251Z,57.21
2022-12-08T13:25:48.258Z,60.49
2022-12-08T13:28:34.783Z,60.19
2022-12-08T13:31:38.396Z,59.92
2022-12-08T13:34:34.648Z,59.16
2022-12-08T13:37:26.473Z,59.43
2022-12-08T13:40:18.082Z,60.14
2022-12-08T13:43:11.363Z,62.04
2022-12-08T13:46:52.911Z,63.13
2022-12-08T13:56:43.404Z,63.16
2022-12-08T13:58:28.215Z,63.28
2022-12-08T14:01:16.566Z,64.45
2022-12-08T14:07:05.341Z,64.96
2022-12-08T14:09:48.958Z,65.61
2022-12-08T14:12:33.551Z,66.70
2022-12-08T14:15:17.595Z,67.23
2022-12-08T14:18:00.860Z,67.07
2022-12-08T14:21:18.916Z,68.32
2022-12-08T14:23:47.089Z,68.98
2022-12-08T14:26:36.139Z,67.75
2022-12-08T14:29:39.242Z,68.04
2022-12-08T14:32:29.165Z,68.64
2022-12-08T14:35:23.980Z,69.66
2022-12-08T14:38:13.842Z,70.49
2022-12-08T14:41:05.546Z,70.27
2022-12-08T14:43:59.776Z,70.68
2022-12-08T14:47:05.798Z,71.19
2022-12-08T14:49:49.791Z,71.15
2022-12-08T14:52:33.326Z,71.60
2022-12-08T14:55:19.633Z,71.58
2022-12-08T14:58:03.003Z,72.75
2022-12-08T15:00:47.894Z,73.64
2022-12-08T15:03:35.119Z,72.93
2022-12-08T15:06:22.834Z,72.97
2022-12-08T15:09:18.643Z,72.59
2022-12-08T15:12:03.854Z,72.56
2022-12-08T15:14:57.056Z,73.30
2022-12-08T15:17:44.542Z,73.05
2022-12-08T15:20:35.489Z,73.88
2022-12-08T15:23:26.190Z,73.69
2022-12-08T15:26:09.856Z,73.55
2022-12-08T15:28:53.560Z,73.99
2022-12-08T15:31:36.737Z,74.89
2022-12-08T15:34:20.256Z,74.60
2022-12-08T15:37:05.905Z,74.88
2022-12-08T15:39:49.493Z,75.72
2022-12-08T15:42:32.597Z,74.93
2022-12-08T15:45:16.861Z,75.67
2022-12-08T15:48:00.702Z,75.79
2022-12-08T15:50:44.108Z,75.30
2022-12-08T15:53:28.899Z,75.96
2022-12-08T15:56:29.167Z,76.65
2022-12-08T15:59:17.139Z,77.49
2022-12-08T16:02:00.273Z,76.69
2022-12-08T16:05:25.657Z,76.19
2022-12-08T16:07:56.056Z,76.77
2022-12-08T16:11:28.849Z,76.88
2022-12-08T16:14:03.145Z,76.01
2022-12-08T16:16:59.310Z,76.98
2022-12-08T16:19:43.436Z,77.08
2022-12-08T16:25:52.719Z,78.66
2022-12-08T16:31:39.564Z,78.56
2022-12-08T16:34:22.985Z,78.64
2022-12-08T16:37:06.135Z,78.83
2022-12-08T16:39:50.809Z,78.22
2022-12-08T16:42:43.552Z,78.09
2022-12-08T16:45:29.979Z,77.35
2022-12-08T16:48:16.083Z,79.17
2022-12-08T16:50:59.271Z,78.70
2022-12-08T16:53:42.610Z,79.41
2022-12-08T16:56:32.233Z,78.64
2022-12-08T16:59:16.724Z,78.49
2022-12-08T17:02:01.347Z,77.27
2022-12-08T17:04:46.206Z,78.45
2022-12-08T17:07:29.409Z,78.17
2022-12-08T17:10:15.155Z,78.86
2022-12-08T17:12:58.823Z,79.03
2022-12-08T17:15:42.337Z,79.42
2022-12-08T17:18:27.140Z,79.14
2022-12-08T17:21:12.850Z,78.97
2022-12-08T17:23:56.286Z,79.73
2022-12-08T17:26:39.486Z,79.37
2022-12-08T17:29:22.800Z,80.27
2022-12-08T17:32:07.040Z,80.50
2022-12-08T17:34:52.378Z,79.87
2022-12-08T17:37:36.525Z,79.78
2022-12-08T17:40:19.917Z,79.82
2022-12-08T17:43:03.730Z,79.74
2022-12-08T17:45:48.543Z,79.03
2022-12-08T17:48:34.822Z,79.60
2022-12-08T17:51:19.333Z,79.89
2022-12-08T17:54:02.552Z,79.56
2022-12-08T17:56:45.694Z,80.00
2022-12-08T17:59:30.866Z,79.76
2022-12-08T18:02:15.120Z,79.89
2022-12-08T18:04:59.033Z,80.37
2022-12-08T18:07:44.699Z,81.14
2022-12-08T18:10:28.235Z,81.69
2022-12-08T18:13:13.217Z,81.47
2022-12-08T18:15:56.304Z,80.12
2022-12-08T18:18:39.648Z,79.98
2022-12-08T18:21:23.767Z,79.81
2022-12-08T18:24:10.113Z,79.02
2022-12-08T18:26:53.418Z,78.79
2022-12-08T18:29:36.726Z,78.52
2022-12-08T18:32:23.909Z,78.35
2022-12-08T18:35:08.083Z,78.59
2022-12-08T18:37:51.176Z,79.54
2022-12-08T18:40:35.845Z,79.84
2022-12-08T18:43:19.017Z,80.90
2022-12-08T18:46:03.502Z,80.08
2022-12-08T18:48:49.020Z,80.77
2022-12-08T18:51:32.113Z,80.18
2022-12-08T18:54:15.776Z,80.38
2022-12-08T18:57:00.251Z,79.67
2022-12-08T18:59:43.441Z,80.97
2022-12-08T19:02:26.725Z,79.60
2022-12-08T19:05:12.426Z,78.99
2022-12-08T19:07:58.537Z,79.60
2022-12-08T19:10:42.093Z,78.84
2022-12-08T19:13:28.057Z,79.07
2022-12-08T19:16:11.336Z,78.87
2022-12-08T19:18:54.552Z,79.07
2022-12-08T19:21:44.504Z,78.86
2022-12-08T19:24:29.450Z,79.36
2022-12-08T19:27:13.002Z,78.64
2022-12-08T19:29:57.998Z,77.38
2022-12-08T19:32:41.436Z,78.65
2022-12-08T19:35:24.707Z,78.80
2022-12-08T19:38:07.968Z,79.72
2022-12-08T19:41:08.761Z,79.17
2022-12-08T19:44:09.315Z,79.67
2022-12-08T19:46:53.968Z,79.89
2022-12-08T19:49:37.335Z,80.13
2022-12-08T19:52:20.930Z,80.95
2022-12-08T19:55:04.665Z,80.86
2022-12-08T19:57:47.962Z,80.69
2022-12-08T20:00:32.962Z,79.79
2022-12-08T20:03:21.593Z,81.80
2022-12-08T20:06:05.872Z,81.34
2022-12-08T20:08:50.712Z,82.03
2022-12-08T20:11:34.366Z,82.63
2022-12-08T20:14:18.183Z,81.73
2022-12-08T20:17:01.542Z,80.86
2022-12-08T20:19:46.715Z,81.80
2022-12-08T20:22:29.995Z,81.84
2022-12-08T20:25:13.524Z,81.55
2022-12-08T20:27:56.905Z,82.39
2022-12-08T20:30:41.914Z,82.44
2022-12-08T20:33:25.220Z,82.43
2022-12-08T20:36:16.474Z,82.22
2022-12-08T20:38:59.869Z,82.71
2022-12-08T20:41:44.295Z,82.42
2022-12-08T20:44:29.466Z,82.53
2022-12-08T20:47:13.332Z,82.81
2022-12-08T20:49:56.826Z,83.41
2022-12-08T20:52:41.501Z,83.77
2022-12-08T20:55:24.746Z,83.95
2022-12-08T20:58:08.250Z,85.32
2022-12-08T21:00:51.852Z,85.13
2022-12-08T21:03:35.316Z,84.46
2022-12-08T21:06:22.794Z,85.25
2022-12-08T21:09:07.446Z,85.42
2022-12-08T21:11:51.296Z,86.17
2022-12-08T21:14:34.616Z,85.61
2022-12-08T21:17:17.901Z,83.58
2022-12-08T21:20:01.427Z,84.08
2022-12-08T21:22:44.962Z,85.75
2022-12-08T21:25:29.546Z,85.34
2022-12-08T21:28:13.264Z,85.74
2022-12-08T21:30:57.915Z,86.05
2022-12-08T21:33:41.515Z,85.61
2022-12-08T21:36:25.078Z,85.39
2022-12-08T21:39:12.841Z,85.02
2022-12-08T21:42:15.225Z,85.92
2022-12-08T21:44:58.532Z,85.29
2022-12-08T21:47:42.210Z,85.43
2022-12-08T21:50:26.009Z,86.10
2022-12-08T21:53:09.413Z,85.90
2022-12-08T21:55:52.626Z,85.58
2022-12-08T21:58:37.315Z,85.59
2022-12-08T22:01:20.958Z,85.97
2022-12-08T22:04:04.575Z,85.60
2022-12-08T22:06:48.101Z,86.46
2022-12-08T22:09:31.581Z,85.39
2022-12-08T22:12:16.865Z,85.08
2022-12-08T22:15:03.268Z,86.01
2022-12-08T22:17:46.577Z,86.85
2022-12-08T22:20:29.784Z,86.95
2022-12-08T22:23:12.979Z,87.35
2022-12-08T22:25:59.280Z,87.73
2022-12-08T22:28:46.448Z,88.06
2022-12-08T22:31:30.966Z,87.09
2022-12-08T22:34:15.023Z,88.07
2022-12-08T22:36:58.184Z,87.88
2022-12-08T22:39:41.211Z,87.85
2022-12-08T22:42:24.272Z,87.72
2022-12-08T22:45:08.526Z,86.95
2022-12-08T22:47:52.976Z,86.53
2022-12-08T22:50:37.770Z,85.93
2022-12-08T22:53:20.875Z,86.14
2022-12-08T22:56:05.847Z,87.52
2022-12-08T22:58:49.225Z,88.40
2022-12-08T23:01:34.142Z,87.90
2022-12-08T23:04:19.094Z,87.47
2022-12-08T23:07:02.690Z,87.34
2022-12-08T23:09:46.353Z,86.61
2022-12-08T23:12:29.685Z,87.21
2022-12-08T23:15:13.004Z,86.51
2022-12-08T23:17:56.479Z,86.42
2022-12-08T23:20:41.453Z,86.95
2022-12-08T23:23:24.931Z,86.88
2022-12-08T23:26:19.538Z,86.26
2022-12-08T23:29:03.312Z,86.64
2022-12-08T23:31:46.508Z,86.88
2022-12-08T23:34:30.253Z,86.76
2022-12-08T23:37:14.996Z,86.38
2022-12-08T23:39:58.758Z,86.44
2022-12-08T23:42:42.040Z,86.04
2022-12-08T23:45:25.381Z,86.30
2022-12-08T23:48:08.533Z,86.24
2022-12-08T23:50:52.054Z,86.04
2022-12-08T23:53:36.831Z,85.97
2022-12-08T23:56:23.165Z,86.92
2022-12-08T23:59:09.138Z,86.66
